createdAt,value
2019-04-03T00:00:42.526Z,12.80
2019-04-03T00:03:10.280Z,12.70
2019-04-03T00:05:38.075Z,12.60
2019-04-03T00:08:06.392Z,12.60
2019-04-03T00:10:36.007Z,12.50
2019-04-03T00:13:05.074Z,12.40
2019-04-03T00:15:32.847Z,12.30
2019-04-03T00:18:00.651Z,12.30
2019-04-03T00:20:28.474Z,12.30
2019-04-03T00:22:56.324Z,12.30
2019-04-03T00:25:24.234Z,12.20
2019-04-03T00:27:52.458Z,12.20
2019-04-03T00:30:22.489Z,12.00
2019-04-03T00:32:53.162Z,12.10
2019-04-03T00:35:23.209Z,12.00
2019-04-03T00:37:52.883Z,12.00
2019-04-03T00:40:20.776Z,11.90
2019-04-03T00:42:50.550Z,11.80
2019-04-03T00:45:18.385Z,11.80
2019-04-03T00:47:46.108Z,11.70
2019-04-03T00:50:38.692Z,11.60
2019-04-03T00:53:06.445Z,11.50
2019-04-03T00:55:34.209Z,11.40
2019-04-03T00:58:25.513Z,11.40
2019-04-03T01:01:12.696Z,11.50
2019-04-03T01:03:40.836Z,11.50
2019-04-03T01:06:08.796Z,11.50
2019-04-03T01:08:36.681Z,11.50
2019-04-03T01:11:19.593Z,11.50
2019-04-03T01:13:47.361Z,11.50
2019-04-03T01:16:15.179Z,11.60
2019-04-03T01:18:43.000Z,11.60
2019-04-03T01:21:10.846Z,11.60
2019-04-03T01:23:38.673Z,11.70
2019-04-03T01:26:09.411Z,11.50
2019-04-03T01:28:36.232Z,11.50
2019-04-03T01:31:19.379Z,11.50
2019-04-03T01:33:47.256Z,11.50
2019-04-03T01:36:17.227Z,11.40
2019-04-03T01:38:44.827Z,11.30
2019-04-03T01:41:12.736Z,11.20
2019-04-03T01:43:40.523Z,11.20
2019-04-03T01:46:08.331Z,11.20
2019-04-03T01:48:36.077Z,11.10
2019-04-03T01:51:03.866Z,11.10
2019-04-03T01:53:32.698Z,11.10
2019-04-03T01:56:04.272Z,11.10
2019-04-03T01:58:31.274Z,11.10
2019-04-03T02:00:59.207Z,11.10
2019-04-03T02:03:28.489Z,11.10
2019-04-03T02:05:56.259Z,11.10
2019-04-03T02:08:24.016Z,11.10
2019-04-03T02:10:52.004Z,11.10
2019-04-03T02:13:21.083Z,11.10
2019-04-03T02:15:50.756Z,11.10
2019-04-03T02:18:19.072Z,11.10
2019-04-03T02:20:47.145Z,11.00
2019-04-03T02:23:15.088Z,11.00
2019-04-03T02:25:42.942Z,10.90
2019-04-03T02:28:10.706Z,10.90
2019-04-03T02:30:38.670Z,10.90
2019-04-03T02:33:06.461Z,10.90
2019-04-03T02:35:34.221Z,11.00
2019-04-03T02:38:02.002Z,11.00
2019-04-03T02:40:32.545Z,11.00
2019-04-03T02:43:15.382Z,11.00
2019-04-03T02:45:43.481Z,11.00
2019-04-03T02:48:11.351Z,10.90
2019-04-03T02:50:39.131Z,10.90
2019-04-03T02:53:06.893Z,10.90
2019-04-03T02:55:34.660Z,10.90
2019-04-03T02:58:02.361Z,10.90
2019-04-03T03:00:33.112Z,11.00
2019-04-03T03:02:59.818Z,11.00
2019-04-03T03:05:28.885Z,11.00
2019-04-03T03:07:57.004Z,11.00
2019-04-03T03:10:25.099Z,10.90
2019-04-03T03:12:53.104Z,10.90
2019-04-03T03:15:21.386Z,10.90
2019-04-03T03:17:54.568Z,10.90
2019-04-03T03:20:23.391Z,11.00
2019-04-03T03:22:51.809Z,11.00
2019-04-03T03:25:20.065Z,10.90
2019-04-03T03:27:47.846Z,10.90
2019-04-03T03:30:42.700Z,10.90
2019-04-03T03:32:46.069Z,10.80
2019-04-03T03:35:28.042Z,10.90
2019-04-03T03:37:50.705Z,10.80
2019-04-03T03:40:19.318Z,10.70
2019-04-03T03:42:47.633Z,10.60
2019-04-03T03:45:20.618Z,10.70
2019-04-03T03:47:50.085Z,10.70
2019-04-03T03:50:26.253Z,10.60
2019-04-03T03:52:55.129Z,10.60
2019-04-03T03:55:25.511Z,10.60
2019-04-03T03:57:53.521Z,10.60
2019-04-03T04:00:23.614Z,10.50
2019-04-03T04:02:50.996Z,10.40
2019-04-03T04:05:21.440Z,10.40
2019-04-03T04:07:48.835Z,10.40
2019-04-03T04:10:37.714Z,10.40
2019-04-03T04:13:05.808Z,10.30
2019-04-03T04:15:33.827Z,10.30
2019-04-03T04:18:02.814Z,10.40
2019-04-03T04:20:31.168Z,10.50
2019-04-03T04:22:59.808Z,10.50
2019-04-03T04:25:29.762Z,10.60
2019-04-03T04:27:59.162Z,10.70
2019-04-03T04:30:27.670Z,10.70
2019-04-03T04:32:55.545Z,10.70
2019-04-03T04:35:23.385Z,10.60
2019-04-03T04:37:51.202Z,10.60
2019-04-03T04:40:18.921Z,10.60
2019-04-03T04:42:46.900Z,10.60
2019-04-03T04:45:14.658Z,10.60
2019-04-03T04:47:45.784Z,10.40
2019-04-03T04:50:19.802Z,10.40
2019-04-03T04:52:47.529Z,10.40
2019-04-03T04:55:15.346Z,10.40
2019-04-03T04:57:43.230Z,10.40
2019-04-03T05:00:11.262Z,10.40
2019-04-03T05:02:39.308Z,10.40
2019-04-03T05:05:08.923Z,10.30
2019-04-03T05:07:36.879Z,10.30
2019-04-03T05:10:05.839Z,10.40
2019-04-03T05:12:34.256Z,10.30
2019-04-03T05:15:02.237Z,10.30
2019-04-03T05:17:30.085Z,10.30
2019-04-03T05:19:57.835Z,10.30
2019-04-03T05:22:25.655Z,10.30
2019-04-03T05:24:53.421Z,10.30
2019-04-03T05:27:22.399Z,10.30
2019-04-03T05:29:50.233Z,10.30
2019-04-03T05:32:18.006Z,10.20
2019-04-03T05:34:45.828Z,10.10
2019-04-03T05:37:14.980Z,10.10
2019-04-03T05:39:42.940Z,10.10
2019-04-03T05:42:10.798Z,10.10
2019-04-03T05:44:38.703Z,10.10
2019-04-03T05:47:08.118Z,10.10
2019-04-03T05:49:47.178Z,10.20
2019-04-03T05:52:15.647Z,10.20
2019-04-03T05:54:44.580Z,10.20
2019-04-03T05:57:14.057Z,10.30
2019-04-03T05:59:44.148Z,10.40
2019-04-03T06:02:16.206Z,10.40
2019-04-03T06:04:41.928Z,10.40
2019-04-03T06:07:10.035Z,10.40
2019-04-03T06:09:37.860Z,10.40
2019-04-03T06:12:08.353Z,10.50
2019-04-03T06:14:35.471Z,10.40
2019-04-03T06:17:03.225Z,10.50
2019-04-03T06:19:32.539Z,10.60
2019-04-03T06:22:00.724Z,10.60
2019-04-03T06:24:28.516Z,10.70
2019-04-03T06:26:56.322Z,10.70
2019-04-03T06:29:24.129Z,10.70
2019-04-03T06:31:51.959Z,10.70
2019-04-03T06:34:19.787Z,10.60
2019-04-03T06:36:49.777Z,10.60
2019-04-03T06:39:17.558Z,10.60
2019-04-03T06:41:45.769Z,10.60
2019-04-03T06:44:13.597Z,10.50
2019-04-03T06:46:41.415Z,10.60
2019-04-03T06:49:09.223Z,10.60
2019-04-03T06:51:37.034Z,10.70
2019-04-03T06:54:07.194Z,10.80
2019-04-03T06:56:34.729Z,10.90
2019-04-03T06:59:02.537Z,10.90
2019-04-03T07:01:30.561Z,11.00
2019-04-03T07:03:58.531Z,11.00
2019-04-03T07:06:26.560Z,11.00
2019-04-03T07:08:54.475Z,10.90
2019-04-03T07:11:23.932Z,10.90
2019-04-03T07:13:53.951Z,10.90
2019-04-03T07:16:21.674Z,10.80
2019-04-03T07:18:49.491Z,10.70
2019-04-03T07:21:17.364Z,10.70
2019-04-03T07:23:45.178Z,10.70
2019-04-03T07:26:12.991Z,10.60
2019-04-03T07:28:42.253Z,10.70
2019-04-03T07:31:25.440Z,10.70
2019-04-03T07:33:53.187Z,10.80
2019-04-03T07:36:21.144Z,10.90
2019-04-03T07:38:48.921Z,11.00
2019-04-03T07:41:16.687Z,11.00
2019-04-03T07:43:44.754Z,10.90
2019-04-03T07:46:12.627Z,11.00
2019-04-03T07:48:40.440Z,11.00
2019-04-03T07:51:08.471Z,11.00
2019-04-03T07:53:36.317Z,10.90
2019-04-03T07:56:04.196Z,11.00
2019-04-03T07:58:32.629Z,11.10
2019-04-03T08:01:05.988Z,11.00
2019-04-03T08:03:33.793Z,11.20
2019-04-03T08:06:03.250Z,11.30
2019-04-03T08:08:31.448Z,11.40
2019-04-03T08:10:59.759Z,11.60
2019-04-03T08:13:31.211Z,11.70
2019-04-03T08:16:00.163Z,11.90
2019-04-03T08:18:28.575Z,11.90
2019-04-03T08:20:57.634Z,11.80
2019-04-03T08:23:26.098Z,11.90
2019-04-03T08:25:54.753Z,11.90
2019-04-03T08:28:25.543Z,11.90
2019-04-03T08:30:52.569Z,12.00
2019-04-03T08:33:26.215Z,12.10
2019-04-03T08:35:50.051Z,12.10
2019-04-03T08:38:17.846Z,11.90
2019-04-03T08:40:45.862Z,11.80
2019-04-03T08:43:14.137Z,11.90
2019-04-03T08:45:42.100Z,11.90
2019-04-03T08:48:09.850Z,11.90
2019-04-03T08:51:03.494Z,11.90
2019-04-03T08:53:31.648Z,11.90
2019-04-03T08:55:59.496Z,12.00
2019-04-03T08:58:27.290Z,12.10
2019-04-03T09:00:55.317Z,12.20
2019-04-03T09:03:23.765Z,12.40
2019-04-03T09:05:52.332Z,12.50
2019-04-03T09:08:21.196Z,12.70
2019-04-03T09:10:49.298Z,12.90
2019-04-03T09:13:21.870Z,13.30
2019-04-03T09:15:46.783Z,13.90
2019-04-03T09:18:15.129Z,14.50
2019-04-03T09:20:47.954Z,15.20
2019-04-03T09:23:15.818Z,15.30
2019-04-03T09:25:43.838Z,15.30
2019-04-03T09:28:11.863Z,15.30
2019-04-03T09:30:40.124Z,15.00
2019-04-03T09:33:08.067Z,15.00
2019-04-03T09:35:36.627Z,14.80
2019-04-03T09:38:04.411Z,14.80
2019-04-03T09:40:32.712Z,15.00
2019-04-03T09:43:00.456Z,15.40
2019-04-03T09:45:28.687Z,15.70
2019-04-03T09:47:57.013Z,15.80
2019-04-03T09:50:25.330Z,15.80
2019-04-03T09:52:54.899Z,15.70
2019-04-03T09:55:22.867Z,15.60
2019-04-03T09:57:52.669Z,15.30
2019-04-03T10:00:20.630Z,15.00
2019-04-03T10:02:49.174Z,15.10
2019-04-03T10:05:18.356Z,15.10
2019-04-03T10:07:46.185Z,15.20
2019-04-03T10:10:16.953Z,15.20
2019-04-03T10:12:48.073Z,15.20
2019-04-03T10:15:17.962Z,15.20
2019-04-03T10:17:44.933Z,15.90
2019-04-03T10:20:24.282Z,16.60
2019-04-03T10:22:53.997Z,17.10
2019-04-03T10:25:22.631Z,17.60
2019-04-03T10:27:50.441Z,17.60
2019-04-03T10:30:22.362Z,17.60
2019-04-03T10:32:50.409Z,18.10
2019-04-03T10:35:18.393Z,18.60
2019-04-03T10:37:47.104Z,19.80
2019-04-03T10:40:15.827Z,19.80
2019-04-03T10:42:43.597Z,19.10
2019-04-03T10:45:11.703Z,18.20
2019-04-03T10:47:43.314Z,17.60
2019-04-03T10:50:10.682Z,17.30
2019-04-03T10:52:38.567Z,16.70
2019-04-03T10:55:07.397Z,16.30
2019-04-03T10:57:35.500Z,16.00
2019-04-03T11:00:05.451Z,15.70
2019-04-03T11:02:33.277Z,15.60
2019-04-03T11:05:01.151Z,15.70
2019-04-03T11:07:29.202Z,15.60
2019-04-03T11:10:13.369Z,15.50
2019-04-03T11:12:41.604Z,15.40
2019-04-03T11:15:12.544Z,15.20
2019-04-03T11:17:40.594Z,15.30
2019-04-03T11:20:11.022Z,15.40
2019-04-03T11:22:41.578Z,15.60
2019-04-03T11:25:13.950Z,15.60
2019-04-03T11:27:43.567Z,15.90
2019-04-03T11:30:12.406Z,16.40
2019-04-03T11:32:41.674Z,17.40
2019-04-03T11:35:10.596Z,17.60
2019-04-03T11:37:38.443Z,18.20
2019-04-03T11:40:07.585Z,19.30
2019-04-03T11:42:35.458Z,20.20
2019-04-03T11:45:04.883Z,20.40
2019-04-03T11:47:33.243Z,20.90
2019-04-03T11:50:01.116Z,20.90
2019-04-03T11:52:28.915Z,20.60
2019-04-03T11:54:57.080Z,20.00
2019-04-03T11:57:26.910Z,19.70
2019-04-03T11:59:59.840Z,19.40
2019-04-03T12:02:27.605Z,19.20
2019-04-03T12:04:55.442Z,19.20
2019-04-03T12:07:25.128Z,19.10
2019-04-03T12:09:53.247Z,18.90
2019-04-03T12:12:21.081Z,18.80
2019-04-03T12:14:49.625Z,18.60
2019-04-03T12:17:17.962Z,18.30
2019-04-03T12:19:46.205Z,18.40
2019-04-03T12:22:14.418Z,18.40
2019-04-03T12:24:42.209Z,19.00
2019-04-03T12:27:10.001Z,19.50
2019-04-03T12:29:37.811Z,19.30
2019-04-03T12:32:07.938Z,18.90
2019-04-03T12:34:37.582Z,19.20
2019-04-03T12:37:05.016Z,20.00
2019-04-03T12:39:33.035Z,20.90
2019-04-03T12:42:00.802Z,21.80
2019-04-03T12:44:28.758Z,21.50
2019-04-03T12:46:56.810Z,21.20
2019-04-03T12:49:24.579Z,22.20
2019-04-03T12:51:52.511Z,23.20
2019-04-03T12:54:21.122Z,24.10
2019-04-03T12:56:49.623Z,24.70
2019-04-03T12:59:20.352Z,25.70
2019-04-03T13:01:49.233Z,26.20
2019-04-03T13:04:17.598Z,26.80
2019-04-03T13:06:45.622Z,25.70
2019-04-03T13:09:14.077Z,24.50
2019-04-03T13:11:42.028Z,23.10
2019-04-03T13:14:22.053Z,22.70
2019-04-03T13:16:41.516Z,22.40
2019-04-03T13:19:10.741Z,21.90
2019-04-03T13:21:39.825Z,22.00
2019-04-03T13:24:10.709Z,21.70
2019-04-03T13:26:38.177Z,21.70
2019-04-03T13:29:08.191Z,21.80
2019-04-03T13:31:35.703Z,22.00
2019-04-03T13:34:03.544Z,21.70
2019-04-03T13:36:31.384Z,21.50
2019-04-03T13:39:01.260Z,20.90
2019-04-03T13:41:29.003Z,20.70
2019-04-03T13:43:56.793Z,20.30
2019-04-03T13:46:24.616Z,19.70
2019-04-03T13:48:52.862Z,19.40
2019-04-03T13:51:21.053Z,19.00
2019-04-03T13:53:48.961Z,18.80
2019-04-03T13:56:17.264Z,18.30
2019-04-03T13:58:45.168Z,18.30
2019-04-03T14:01:12.998Z,18.10
2019-04-03T14:03:40.920Z,18.00
2019-04-03T14:06:08.726Z,18.00
2019-04-03T14:08:36.551Z,18.00
2019-04-03T14:11:14.410Z,18.60
2019-04-03T14:13:43.640Z,19.30
2019-04-03T14:16:19.954Z,19.40
2019-04-03T14:18:42.325Z,20.20
2019-04-03T14:21:10.786Z,20.10
2019-04-03T14:23:40.639Z,19.90
2019-04-03T14:26:12.595Z,19.80
2019-04-03T14:28:38.622Z,20.20
2019-04-03T14:31:07.192Z,20.30
2019-04-03T14:33:42.952Z,20.40
2019-04-03T14:36:05.070Z,20.00
2019-04-03T14:38:33.622Z,19.70
2019-04-03T14:41:02.127Z,19.20
2019-04-03T14:43:32.965Z,19.40
2019-04-03T14:45:59.596Z,19.90
2019-04-03T14:48:27.660Z,20.10
2019-04-03T14:50:55.574Z,20.60
2019-04-03T14:53:23.503Z,21.40
2019-04-03T14:55:51.334Z,21.40
2019-04-03T14:58:19.129Z,21.20
2019-04-03T15:00:48.615Z,20.70
2019-04-03T15:03:17.014Z,20.70
2019-04-03T15:05:45.426Z,20.80
2019-04-03T15:08:13.328Z,20.80
2019-04-03T15:10:41.079Z,20.70
2019-04-03T15:13:09.051Z,20.70
2019-04-03T15:15:37.124Z,20.70
2019-04-03T15:18:05.439Z,20.40
2019-04-03T15:20:33.954Z,20.20
2019-04-03T15:23:05.238Z,19.80
2019-04-03T15:25:31.715Z,19.80
2019-04-03T15:28:00.388Z,19.70
2019-04-03T15:30:28.535Z,19.50
2019-04-03T15:32:56.289Z,19.50
2019-04-03T15:35:24.323Z,19.30
2019-04-03T15:37:52.340Z,19.20
2019-04-03T15:40:20.814Z,18.80
2019-04-03T15:42:53.761Z,18.60
2019-04-03T15:45:22.457Z,18.10
2019-04-03T15:47:54.047Z,17.80
2019-04-03T15:50:20.768Z,17.80
2019-04-03T15:52:50.360Z,17.60
2019-04-03T15:55:18.630Z,17.60
2019-04-03T15:57:46.759Z,17.70
2019-04-03T16:00:40.010Z,17.80
2019-04-03T16:03:08.766Z,17.80
2019-04-03T16:05:37.222Z,17.70
2019-04-03T16:08:05.679Z,17.60
2019-04-03T16:10:34.373Z,17.50
2019-04-03T16:13:02.176Z,17.20
2019-04-03T16:15:29.970Z,17.20
2019-04-03T16:17:57.741Z,17.00
2019-04-03T16:20:40.716Z,16.90
2019-04-03T16:23:08.469Z,16.80
2019-04-03T16:25:36.243Z,16.70
2019-04-03T16:28:04.119Z,16.70
2019-04-03T16:30:31.991Z,16.70
2019-04-03T16:33:03.092Z,16.60
2019-04-03T16:35:29.483Z,16.50
2019-04-03T16:37:57.964Z,16.50
2019-04-03T16:40:26.765Z,16.60
2019-04-03T16:42:54.592Z,16.50
2019-04-03T16:45:22.947Z,16.40
2019-04-03T16:47:51.754Z,16.30
2019-04-03T16:50:19.932Z,16.10
2019-04-03T16:52:48.345Z,16.10
2019-04-03T16:55:16.862Z,16.00
2019-04-03T16:57:45.624Z,15.80
2019-04-03T17:00:18.740Z,15.60
2019-04-03T17:02:46.557Z,15.40
2019-04-03T17:05:14.735Z,15.30
2019-04-03T17:07:45.158Z,15.20
2019-04-03T17:10:13.059Z,15.10
2019-04-03T17:12:40.902Z,15.00
2019-04-03T17:15:09.759Z,14.60
2019-04-03T17:17:37.706Z,13.90
2019-04-03T17:20:06.985Z,13.60
2019-04-03T17:22:35.046Z,13.10
2019-04-03T17:25:04.878Z,12.90
2019-04-03T17:27:32.646Z,12.70
2019-04-03T17:30:01.041Z,12.50
2019-04-03T17:32:29.918Z,12.40
2019-04-03T17:34:58.794Z,12.00
2019-04-03T17:37:29.676Z,11.60
2019-04-03T17:39:56.615Z,11.10
2019-04-03T17:42:25.908Z,10.80
2019-04-03T17:44:53.888Z,10.40
2019-04-03T17:47:21.718Z,10.00
2019-04-03T17:49:52.966Z,9.70
2019-04-03T17:52:20.799Z,9.70
2019-04-03T17:54:48.593Z,9.30
2019-04-03T17:57:17.550Z,9.00
2019-04-03T17:59:48.864Z,8.90
2019-04-03T18:02:15.642Z,8.70
2019-04-03T18:04:43.704Z,8.60
2019-04-03T18:07:12.217Z,8.60
2019-04-03T18:09:55.259Z,8.40
2019-04-03T18:12:25.859Z,8.10
2019-04-03T18:14:53.643Z,8.00
2019-04-03T18:17:21.662Z,7.90
2019-04-03T18:19:49.446Z,8.00
2019-04-03T18:22:20.055Z,8.20
2019-04-03T18:24:47.075Z,8.00
2019-04-03T18:27:14.929Z,7.80
2019-04-03T18:29:44.783Z,7.80
2019-04-03T18:32:13.627Z,7.70
2019-04-03T18:34:48.416Z,7.60
2019-04-03T18:37:14.948Z,7.60
2019-04-03T18:39:42.829Z,7.60
2019-04-03T18:42:10.917Z,7.60
2019-04-03T18:44:38.743Z,7.10
2019-04-03T18:47:07.219Z,7.60
2019-04-03T18:49:35.490Z,7.60
2019-04-03T18:52:03.359Z,7.40
2019-04-03T18:54:31.215Z,7.60
2019-04-03T18:56:59.025Z,7.60
2019-04-03T18:59:26.829Z,7.60
2019-04-03T19:01:54.719Z,7.50
2019-04-03T19:04:22.566Z,7.40
2019-04-03T19:06:50.476Z,7.40
2019-04-03T19:09:21.059Z,7.30
2019-04-03T19:11:48.226Z,7.20
2019-04-03T19:14:32.392Z,7.30
2019-04-03T19:16:51.459Z,7.10
2019-04-03T19:19:16.545Z,7.10
2019-04-03T19:21:45.107Z,7.00
2019-04-03T19:24:12.993Z,7.20
2019-04-03T19:26:40.867Z,7.00
2019-04-03T19:29:08.699Z,7.10
2019-04-03T19:31:39.821Z,7.10
2019-04-03T19:34:06.343Z,7.00
2019-04-03T19:36:34.232Z,7.00
2019-04-03T19:39:04.848Z,6.90
2019-04-03T19:41:34.086Z,6.90
2019-04-03T19:44:01.988Z,6.80
2019-04-03T19:46:29.859Z,6.80
2019-04-03T19:48:57.800Z,6.90
2019-04-03T19:51:25.649Z,6.90
2019-04-03T19:53:59.096Z,6.80
2019-04-03T19:56:25.991Z,6.80
2019-04-03T19:58:54.315Z,6.90
2019-04-03T20:01:23.966Z,6.80
2019-04-03T20:03:51.891Z,6.80
2019-04-03T20:06:22.528Z,6.80
2019-04-03T20:08:49.487Z,6.80
2019-04-03T20:11:20.140Z,6.70
2019-04-03T20:13:47.922Z,6.60
2019-04-03T20:16:15.692Z,6.60
2019-04-03T20:18:43.515Z,6.60
2019-04-03T20:21:15.018Z,6.60
2019-04-03T20:23:42.462Z,6.60
2019-04-03T20:26:10.883Z,6.50
2019-04-03T20:28:38.632Z,6.50
2019-04-03T20:31:06.414Z,6.50
2019-04-03T20:33:34.240Z,6.50
2019-04-03T20:36:02.057Z,6.60
2019-04-03T20:38:29.797Z,6.50
2019-04-03T20:41:12.685Z,6.60
2019-04-03T20:43:42.698Z,6.60
2019-04-03T20:46:10.166Z,6.70
2019-04-03T20:48:38.026Z,6.80
2019-04-03T20:51:08.835Z,6.80
2019-04-03T20:53:35.559Z,6.80
2019-04-03T20:56:03.288Z,6.80
2019-04-03T20:58:31.095Z,6.80
2019-04-03T21:01:06.874Z,6.70
2019-04-03T21:03:28.653Z,6.70
2019-04-03T21:05:56.425Z,6.70
2019-04-03T21:08:24.791Z,6.60
2019-04-03T21:10:53.883Z,6.70
2019-04-03T21:13:21.659Z,6.70
2019-04-03T21:15:52.104Z,6.70
2019-04-03T21:18:20.661Z,6.80
2019-04-03T21:20:48.755Z,6.70
2019-04-03T21:23:16.573Z,6.70
2019-04-03T21:25:44.308Z,6.70
2019-04-03T21:28:12.037Z,6.80
2019-04-03T21:30:39.822Z,6.90
2019-04-03T21:33:07.612Z,6.80
2019-04-03T21:35:35.866Z,6.80
2019-04-03T21:38:03.746Z,6.80
2019-04-03T21:40:31.614Z,6.80
2019-04-03T21:42:59.431Z,6.80
2019-04-03T21:45:27.171Z,6.90
2019-04-03T21:47:55.938Z,6.80
2019-04-03T21:50:23.895Z,6.80
2019-04-03T21:52:53.492Z,6.70
2019-04-03T21:55:21.373Z,6.90
2019-04-03T21:57:49.133Z,6.90
2019-04-03T22:00:55.375Z,7.00
2019-04-03T22:03:23.209Z,6.90
2019-04-03T22:05:51.014Z,7.00
2019-04-03T22:08:18.779Z,6.90
2019-04-03T22:10:57.398Z,6.90
2019-04-03T22:13:25.191Z,6.90
2019-04-03T22:15:52.946Z,6.80
2019-04-03T22:18:23.499Z,6.80
2019-04-03T22:20:50.398Z,6.70
2019-04-03T22:23:18.215Z,6.80
2019-04-03T22:25:45.987Z,6.90
2019-04-03T22:28:14.082Z,6.90
2019-04-03T22:30:41.950Z,6.80
2019-04-03T22:33:09.764Z,6.90
2019-04-03T22:35:37.549Z,6.90
2019-04-03T22:38:06.084Z,6.90
2019-04-03T22:40:40.741Z,6.90
2019-04-03T22:43:09.032Z,6.90
2019-04-03T22:45:36.805Z,6.80
2019-04-03T22:48:04.586Z,6.70
2019-04-03T22:50:33.454Z,6.70
2019-04-03T22:53:02.635Z,6.70
2019-04-03T22:55:30.460Z,6.70
2019-04-03T22:57:58.218Z,6.60
2019-04-03T23:00:26.338Z,6.60
2019-04-03T23:02:54.303Z,6.60
2019-04-03T23:05:22.029Z,6.60
2019-04-03T23:07:51.766Z,7.00
2019-04-03T23:10:19.634Z,6.90
2019-04-03T23:12:47.455Z,6.50
2019-04-03T23:15:15.225Z,6.50
2019-04-03T23:17:44.809Z,6.50
2019-04-03T23:20:12.946Z,6.40
2019-04-03T23:22:40.812Z,6.50
2019-04-03T23:25:08.616Z,6.60
2019-04-03T23:27:36.418Z,6.60
2019-04-03T23:30:34.677Z,6.60
2019-04-03T23:33:02.491Z,6.50
2019-04-03T23:35:30.305Z,6.50
2019-04-03T23:37:58.110Z,6.40
2019-04-03T23:40:25.972Z,6.50
2019-04-03T23:42:54.139Z,6.60
2019-04-03T23:45:23.538Z,6.60
2019-04-03T23:47:51.348Z,6.60
2019-04-03T23:50:52.431Z,6.60
2019-04-03T23:53:19.483Z,6.60
2019-04-03T23:55:47.253Z,6.60
2019-04-03T23:58:15.065Z,6.60
